createdAt,value
2023-04-22T00:01:40.089Z,67.80
2023-04-22T00:04:09.217Z,68.00
2023-04-22T00:06:37.634Z,67.90
2023-04-22T00:09:07.045Z,67.80
2023-04-22T00:11:35.000Z,67.70
2023-04-22T00:14:02.984Z,67.80
2023-04-22T00:16:31.012Z,68.00
2023-04-22T00:18:59.105Z,68.20
2023-04-22T00:21:27.481Z,68.50
2023-04-22T00:23:55.695Z,68.80
2023-04-22T00:26:25.272Z,68.90
2023-04-22T00:28:53.238Z,69.20
2023-04-22T00:31:21.231Z,69.30
2023-04-22T00:33:49.210Z,69.60
2023-04-22T00:36:17.250Z,69.70
2023-04-22T00:38:49.598Z,69.80
2023-04-22T00:41:18.245Z,70.00
2023-04-22T00:43:48.072Z,70.30
2023-04-22T00:46:17.674Z,70.60
2023-04-22T00:48:47.292Z,70.90
2023-04-22T00:51:15.342Z,71.10
2023-04-22T00:53:43.276Z,71.30
2023-04-22T00:56:12.848Z,71.50
2023-04-22T00:58:41.156Z,71.70
2023-04-22T01:01:10.548Z,71.90
2023-04-22T01:03:41.601Z,72.00
2023-04-22T01:06:09.883Z,72.20
2023-04-22T01:08:37.952Z,72.50
2023-04-22T01:11:06.167Z,72.70
2023-04-22T01:13:35.901Z,72.90
2023-04-22T01:16:04.049Z,73.00
2023-04-22T01:18:34.223Z,73.20
2023-04-22T01:21:03.452Z,73.40
2023-04-22T01:23:32.912Z,73.50
2023-04-22T01:26:01.541Z,73.70
2023-04-22T01:28:30.461Z,73.80
2023-04-22T01:30:58.683Z,74.10
2023-04-22T01:33:26.868Z,74.40
2023-04-22T01:35:54.934Z,74.50
2023-04-22T01:38:23.099Z,74.60
2023-04-22T01:40:53.030Z,74.80
2023-04-22T01:43:21.154Z,75.00
2023-04-22T01:45:49.254Z,75.10
2023-04-22T01:48:17.439Z,75.20
2023-04-22T01:50:45.848Z,76.30
2023-04-22T01:53:14.445Z,75.80
2023-04-22T01:55:43.971Z,76.00
2023-04-22T01:58:13.305Z,76.10
2023-04-22T02:00:41.346Z,76.30
2023-04-22T02:03:09.416Z,76.50
2023-04-22T02:05:38.081Z,76.80
2023-04-22T02:08:06.049Z,77.10
2023-04-22T02:10:34.014Z,77.30
2023-04-22T02:13:01.971Z,77.50
2023-04-22T02:15:31.566Z,77.50
2023-04-22T02:18:00.026Z,77.70
2023-04-22T02:20:28.019Z,77.80
2023-04-22T02:22:55.987Z,77.90
2023-04-22T02:25:24.101Z,78.00
2023-04-22T02:27:52.100Z,78.30
2023-04-22T02:30:20.068Z,78.40
2023-04-22T02:32:49.926Z,78.50
2023-04-22T02:35:18.013Z,78.60
2023-04-22T02:37:45.974Z,78.70
2023-04-22T02:40:14.184Z,78.80
2023-04-22T02:42:42.194Z,78.80
2023-04-22T02:45:11.144Z,78.80
2023-04-22T02:47:39.228Z,78.90
2023-04-22T02:50:09.951Z,78.90
2023-04-22T02:52:37.986Z,79.00
2023-04-22T02:55:06.633Z,79.00
2023-04-22T02:57:34.656Z,79.00
2023-04-22T03:00:02.904Z,79.00
2023-04-22T03:02:31.259Z,79.10
2023-04-22T03:05:00.926Z,79.10
2023-04-22T03:07:30.262Z,79.20
2023-04-22T03:09:58.252Z,79.40
2023-04-22T03:12:26.435Z,79.60
2023-04-22T03:14:54.391Z,79.50
2023-04-22T03:17:22.516Z,79.30
2023-04-22T03:19:50.538Z,79.60
2023-04-22T03:22:18.521Z,79.70
2023-04-22T03:24:47.812Z,80.00
2023-04-22T03:27:15.749Z,80.10
2023-04-22T03:29:43.717Z,80.10
2023-04-22T03:32:12.141Z,80.10
2023-04-22T03:34:40.148Z,80.40
2023-04-22T03:37:08.270Z,80.60
2023-04-22T03:39:36.452Z,80.70
2023-04-22T03:42:06.321Z,80.80
2023-04-22T03:44:34.276Z,80.90
2023-04-22T03:47:02.472Z,81.00
2023-04-22T03:49:30.904Z,81.00
2023-04-22T03:51:59.253Z,81.10
2023-04-22T03:54:28.595Z,81.10
2023-04-22T03:56:56.742Z,81.30
2023-04-22T03:59:26.155Z,81.40
2023-04-22T04:01:54.868Z,81.60
2023-04-22T04:04:24.341Z,81.70
2023-04-22T04:06:52.589Z,81.80
2023-04-22T04:09:20.536Z,82.00
2023-04-22T04:11:48.591Z,82.20
2023-04-22T04:14:16.710Z,82.30
2023-04-22T04:16:46.088Z,82.30
2023-04-22T04:19:14.084Z,82.50
2023-04-22T04:21:42.506Z,82.70
2023-04-22T04:24:10.516Z,82.80
2023-04-22T04:26:38.513Z,83.00
2023-04-22T04:29:06.774Z,83.20
2023-04-22T04:31:35.373Z,83.40
2023-04-22T04:34:05.812Z,83.50
2023-04-22T04:36:34.370Z,83.70
2023-04-22T04:39:02.551Z,84.00
2023-04-22T04:41:31.898Z,84.20
2023-04-22T04:44:00.560Z,84.10
2023-04-22T04:46:29.785Z,84.40
2023-04-22T04:48:58.827Z,84.50
2023-04-22T04:51:28.287Z,84.70
2023-04-22T04:53:56.255Z,84.80
2023-04-22T04:56:24.238Z,84.80
2023-04-22T04:58:52.180Z,84.80
2023-04-22T05:01:20.179Z,84.90
2023-04-22T05:03:48.315Z,84.80
2023-04-22T05:06:16.442Z,84.70
2023-04-22T05:08:45.708Z,84.40
2023-04-22T05:11:13.817Z,84.40
2023-04-22T05:13:41.787Z,84.40
2023-04-22T05:16:09.855Z,84.30
2023-04-22T05:18:37.878Z,84.10
2023-04-22T05:21:06.204Z,84.10
2023-04-22T05:23:34.444Z,84.10
2023-04-22T05:26:03.800Z,84.10
2023-04-22T05:28:31.928Z,84.00
2023-04-22T05:30:59.900Z,83.90
2023-04-22T05:33:27.839Z,84.00
2023-04-22T05:35:56.320Z,83.90
2023-04-22T05:38:24.305Z,84.70
2023-04-22T05:40:52.516Z,84.20
2023-04-22T05:43:21.854Z,84.40
2023-04-22T05:45:49.969Z,84.40
2023-04-22T05:48:17.923Z,84.50
2023-04-22T05:50:45.950Z,84.60
2023-04-22T05:53:13.936Z,84.60
2023-04-22T05:55:42.379Z,85.40
2023-04-22T05:58:10.500Z,84.60
2023-04-22T06:00:39.841Z,84.60
2023-04-22T06:03:08.092Z,84.80
2023-04-22T06:05:36.635Z,84.90
2023-04-22T06:08:04.771Z,84.90
2023-04-22T06:10:32.795Z,85.00
2023-04-22T06:13:01.260Z,85.00
2023-04-22T06:15:29.859Z,85.10
2023-04-22T06:17:59.225Z,85.10
2023-04-22T06:20:27.452Z,85.20
2023-04-22T06:22:55.479Z,85.20
2023-04-22T06:25:23.425Z,86.10
2023-04-22T06:27:51.407Z,85.40
2023-04-22T06:30:19.405Z,85.70
2023-04-22T06:32:47.397Z,85.80
2023-04-22T06:35:16.975Z,86.00
2023-04-22T06:37:45.122Z,86.10
2023-04-22T06:40:13.400Z,86.00
2023-04-22T06:42:41.461Z,86.10
2023-04-22T06:45:12.785Z,86.30
2023-04-22T06:47:41.024Z,86.50
2023-04-22T06:50:10.545Z,86.80
2023-04-22T06:52:39.864Z,87.00
2023-04-22T06:55:08.565Z,87.10
2023-04-22T06:57:36.565Z,87.30
2023-04-22T07:00:05.356Z,87.40
2023-04-22T07:02:33.638Z,87.40
2023-04-22T07:05:01.662Z,87.70
2023-04-22T07:07:29.762Z,88.80
2023-04-22T07:09:59.173Z,88.20
2023-04-22T07:12:27.174Z,88.40
2023-04-22T07:14:55.128Z,88.60
2023-04-22T07:17:23.123Z,88.60
2023-04-22T07:19:51.258Z,88.60
2023-04-22T07:22:19.180Z,88.70
2023-04-22T07:24:47.148Z,88.60
2023-04-22T07:27:17.259Z,88.60
2023-04-22T07:29:45.246Z,88.50
2023-04-22T07:32:13.269Z,88.70
2023-04-22T07:34:41.350Z,89.00
2023-04-22T07:37:09.617Z,89.10
2023-04-22T07:39:37.952Z,89.00
2023-04-22T07:42:07.371Z,88.90
2023-04-22T07:44:38.810Z,88.90
2023-04-22T07:47:08.673Z,89.30
2023-04-22T07:49:36.795Z,89.40
2023-04-22T07:52:04.918Z,89.30
2023-04-22T07:54:32.883Z,89.40
2023-04-22T07:57:01.675Z,89.80
2023-04-22T07:59:29.631Z,90.00
2023-04-22T08:01:58.967Z,90.00
2023-04-22T08:04:27.245Z,90.10
2023-04-22T08:06:56.211Z,90.10
2023-04-22T08:09:24.278Z,90.20
2023-04-22T08:11:53.602Z,90.50
2023-04-22T08:14:21.632Z,90.10
2023-04-22T08:16:49.719Z,90.10
2023-04-22T08:19:19.498Z,90.10
2023-04-22T08:21:48.708Z,90.00
2023-04-22T08:24:16.681Z,89.80
2023-04-22T08:26:44.816Z,89.70
2023-04-22T08:29:12.987Z,89.80
2023-04-22T08:31:41.364Z,89.10
2023-04-22T08:34:09.388Z,89.10
2023-04-22T08:36:38.710Z,89.20
2023-04-22T08:39:06.740Z,89.20
2023-04-22T08:41:35.661Z,89.20
2023-04-22T08:44:04.213Z,88.90
2023-04-22T08:46:32.733Z,88.90
2023-04-22T08:49:03.956Z,88.70
2023-04-22T08:51:33.699Z,88.60
2023-04-22T08:54:03.264Z,89.00
2023-04-22T08:56:32.547Z,88.90
2023-04-22T08:59:01.058Z,89.40
2023-04-22T09:01:32.133Z,88.50
2023-04-22T09:04:01.250Z,88.00
2023-04-22T09:06:29.277Z,87.80
2023-04-22T09:08:59.234Z,87.70
2023-04-22T09:11:29.524Z,87.20
2023-04-22T09:13:57.606Z,86.70
2023-04-22T09:16:25.616Z,86.30
2023-04-22T09:18:53.698Z,86.00
2023-04-22T09:21:21.773Z,85.50
2023-04-22T09:23:52.008Z,84.90
2023-04-22T09:26:21.863Z,84.00
2023-04-22T09:28:52.895Z,83.40
2023-04-22T09:31:22.264Z,83.10
2023-04-22T09:33:52.366Z,83.00
2023-04-22T09:36:24.312Z,82.60
2023-04-22T09:38:57.251Z,82.50
2023-04-22T09:41:29.394Z,82.50
2023-04-22T09:43:59.889Z,82.90
2023-04-22T09:46:29.191Z,82.80
2023-04-22T09:48:58.716Z,81.90
2023-04-22T09:51:28.586Z,81.50
2023-04-22T09:54:01.921Z,81.10
2023-04-22T09:56:43.817Z,80.70
2023-04-22T09:59:13.357Z,79.90
2023-04-22T10:01:42.645Z,79.30
2023-04-22T10:04:11.864Z,78.50
2023-04-22T10:06:39.891Z,77.70
2023-04-22T10:09:09.499Z,77.30
2023-04-22T10:11:38.654Z,77.10
2023-04-22T10:14:06.677Z,76.40
2023-04-22T10:16:36.968Z,76.00
2023-04-22T10:19:08.285Z,75.30
2023-04-22T10:21:37.481Z,74.70
2023-04-22T10:24:06.093Z,74.70
2023-04-22T10:26:41.455Z,74.30
2023-04-22T10:29:13.490Z,73.30
2023-04-22T10:31:42.881Z,73.30
2023-04-22T10:34:13.280Z,72.90
2023-04-22T10:36:58.852Z,72.20
2023-04-22T10:39:28.508Z,72.00
2023-04-22T10:42:09.969Z,71.50
2023-04-22T10:44:49.675Z,70.10
2023-04-22T10:47:30.762Z,69.30
2023-04-22T10:50:19.034Z,69.40
2023-04-22T10:52:49.785Z,69.60
2023-04-22T10:55:18.069Z,69.10
2023-04-22T10:57:47.290Z,68.00
2023-04-22T11:00:45.778Z,65.20
2023-04-22T11:03:28.617Z,63.30
2023-04-22T11:06:17.040Z,62.00
2023-04-22T11:08:49.457Z,60.10
2023-04-22T11:11:19.603Z,60.00
2023-04-22T11:13:50.687Z,59.30
2023-04-22T11:16:22.427Z,58.30
2023-04-22T11:18:52.080Z,57.30
2023-04-22T11:21:21.601Z,56.30
2023-04-22T11:23:52.401Z,55.60
2023-04-22T11:26:33.707Z,54.60
2023-04-22T11:29:01.794Z,54.10
2023-04-22T11:31:29.877Z,53.90
2023-04-22T11:34:01.815Z,53.50
2023-04-22T11:36:29.948Z,53.10
2023-04-22T11:38:58.330Z,52.70
2023-04-22T11:41:26.335Z,52.20
2023-04-22T11:43:55.739Z,51.60
2023-04-22T11:46:31.501Z,51.30
2023-04-22T11:49:15.128Z,50.70
2023-04-22T11:51:56.317Z,50.10
2023-04-22T11:54:34.852Z,50.00
2023-04-22T11:57:08.470Z,49.70
2023-04-22T11:59:36.753Z,49.60
2023-04-22T12:02:06.897Z,49.50
2023-04-22T12:04:39.819Z,49.50
2023-04-22T12:07:07.998Z,49.20
2023-04-22T12:09:36.139Z,49.30
2023-04-22T12:12:05.036Z,49.00
2023-04-22T12:14:33.883Z,48.50
2023-04-22T12:17:04.659Z,47.70
2023-04-22T12:19:32.948Z,47.70
2023-04-22T12:22:02.519Z,47.50
2023-04-22T12:24:31.291Z,46.90
2023-04-22T12:26:59.651Z,46.90
2023-04-22T12:29:32.392Z,47.00
2023-04-22T12:32:00.628Z,47.20
2023-04-22T12:34:28.739Z,47.20
2023-04-22T12:36:56.985Z,46.80
2023-04-22T12:39:26.561Z,46.70
2023-04-22T12:41:54.539Z,46.90
2023-04-22T12:44:24.957Z,46.80
2023-04-22T12:46:53.748Z,46.40
2023-04-22T12:49:21.991Z,46.00
2023-04-22T12:51:50.406Z,46.00
2023-04-22T12:54:18.514Z,45.90
2023-04-22T12:56:49.005Z,45.50
2023-04-22T12:59:17.078Z,45.10
2023-04-22T13:01:45.099Z,44.90
2023-04-22T13:04:13.302Z,44.30
2023-04-22T13:06:44.107Z,43.30
2023-04-22T13:09:13.355Z,42.90
2023-04-22T13:11:41.338Z,43.00
2023-04-22T13:14:11.366Z,42.80
2023-04-22T13:16:39.385Z,42.60
2023-04-22T13:19:07.723Z,42.30
2023-04-22T13:21:35.784Z,42.70
2023-04-22T13:24:04.001Z,42.60
2023-04-22T13:26:32.324Z,42.30
2023-04-22T13:29:02.618Z,41.70
2023-04-22T13:31:32.239Z,41.70
2023-04-22T13:34:00.292Z,41.40
2023-04-22T13:36:28.283Z,41.30
2023-04-22T13:38:56.278Z,41.00
2023-04-22T13:41:24.218Z,40.80
2023-04-22T13:43:54.375Z,40.50
2023-04-22T13:46:22.584Z,40.40
2023-04-22T13:48:51.970Z,40.50
2023-04-22T13:51:19.931Z,40.20
2023-04-22T13:53:47.899Z,39.70
2023-04-22T13:56:15.978Z,39.30
2023-04-22T13:58:43.968Z,39.30
2023-04-22T14:01:12.011Z,39.00
2023-04-22T14:03:40.343Z,38.80
2023-04-22T14:06:10.090Z,38.80
2023-04-22T14:08:39.286Z,39.20
2023-04-22T14:11:08.725Z,39.70
2023-04-22T14:13:36.949Z,39.60
2023-04-22T14:16:09.751Z,39.90
2023-04-22T14:18:38.576Z,39.80
2023-04-22T14:21:09.581Z,39.80
2023-04-22T14:23:39.804Z,39.70
2023-04-22T14:26:09.142Z,39.60
2023-04-22T14:28:37.975Z,39.50
2023-04-22T14:31:06.280Z,39.70
2023-04-22T14:33:34.420Z,39.60
2023-04-22T14:36:02.632Z,39.40
2023-04-22T14:38:30.791Z,39.50
2023-04-22T14:41:00.207Z,39.80
2023-04-22T14:43:28.211Z,39.70
2023-04-22T14:45:56.453Z,39.30
2023-04-22T14:48:25.513Z,39.20
2023-04-22T14:50:53.590Z,39.10
2023-04-22T14:53:21.674Z,39.10
2023-04-22T14:55:49.696Z,39.00
2023-04-22T14:58:19.098Z,39.20
2023-04-22T15:00:49.050Z,39.40
2023-04-22T15:03:17.214Z,39.40
2023-04-22T15:05:49.215Z,39.20
2023-04-22T15:08:17.191Z,39.00
2023-04-22T15:10:45.279Z,39.00
2023-04-22T15:13:13.324Z,38.90
2023-04-22T15:15:42.870Z,38.90
2023-04-22T15:18:11.765Z,38.60
2023-04-22T15:20:39.759Z,38.60
2023-04-22T15:23:07.710Z,38.70
2023-04-22T15:25:36.093Z,38.90
2023-04-22T15:28:04.382Z,39.00
2023-04-22T15:30:32.473Z,38.70
2023-04-22T15:33:02.109Z,38.80
2023-04-22T15:35:30.409Z,38.90
2023-04-22T15:37:59.276Z,39.50
2023-04-22T15:40:27.518Z,39.70
2023-04-22T15:42:55.540Z,40.00
2023-04-22T15:45:23.554Z,40.20
2023-04-22T15:47:52.409Z,40.40
2023-04-22T15:50:23.500Z,40.70
2023-04-22T15:52:51.548Z,40.80
2023-04-22T15:55:19.512Z,40.90
2023-04-22T15:57:47.535Z,40.90
2023-04-22T16:00:16.473Z,40.60
2023-04-22T16:02:45.078Z,40.60
2023-04-22T16:05:14.570Z,40.60
2023-04-22T16:07:44.241Z,40.50
2023-04-22T16:10:12.464Z,40.60
2023-04-22T16:12:40.441Z,40.70
2023-04-22T16:15:10.574Z,40.70
2023-04-22T16:17:39.252Z,40.60
2023-04-22T16:20:08.969Z,40.50
2023-04-22T16:22:37.095Z,40.70
2023-04-22T16:25:09.745Z,40.90
2023-04-22T16:27:37.724Z,40.90
2023-04-22T16:30:07.234Z,41.00
2023-04-22T16:32:35.612Z,40.90
2023-04-22T16:35:04.626Z,40.90
2023-04-22T16:37:34.367Z,41.20
2023-04-22T16:40:02.782Z,41.20
2023-04-22T16:42:32.161Z,41.40
2023-04-22T16:45:00.391Z,41.60
2023-04-22T16:47:28.479Z,41.80
2023-04-22T16:49:56.813Z,41.90
2023-04-22T16:52:24.843Z,42.20
2023-04-22T16:54:52.816Z,42.30
2023-04-22T16:57:20.861Z,42.20
2023-04-22T16:59:50.141Z,42.50
2023-04-22T17:02:18.244Z,42.80
2023-04-22T17:04:46.299Z,43.00
2023-04-22T17:07:14.302Z,43.20
2023-04-22T17:09:42.482Z,43.20
2023-04-22T17:12:11.156Z,43.40
2023-04-22T17:14:39.182Z,43.60
2023-04-22T17:17:08.624Z,43.70
2023-04-22T17:19:37.104Z,43.90
2023-04-22T17:22:05.409Z,44.00
2023-04-22T17:24:33.489Z,44.00
2023-04-22T17:27:01.710Z,44.20
2023-04-22T17:29:30.349Z,44.40
2023-04-22T17:31:58.417Z,44.60
2023-04-22T17:34:28.367Z,45.00
2023-04-22T17:36:56.616Z,45.50
2023-04-22T17:39:24.684Z,45.90
2023-04-22T17:41:52.684Z,46.50
2023-04-22T17:44:20.631Z,47.00
2023-04-22T17:46:48.631Z,47.50
2023-04-22T17:49:16.861Z,47.90
2023-04-22T17:51:46.409Z,48.10
2023-04-22T17:54:14.550Z,48.60
2023-04-22T17:56:42.748Z,48.90
2023-04-22T17:59:11.512Z,49.30
2023-04-22T18:01:40.092Z,49.70
2023-04-22T18:04:08.215Z,50.00
2023-04-22T18:06:36.504Z,50.50
2023-04-22T18:09:05.893Z,50.90
2023-04-22T18:11:34.314Z,51.40
2023-04-22T18:14:02.584Z,51.90
2023-04-22T18:16:30.795Z,52.30
2023-04-22T18:18:59.890Z,52.70
2023-04-22T18:21:29.454Z,53.10
2023-04-22T18:23:57.773Z,53.50
2023-04-22T18:26:27.604Z,53.90
2023-04-22T18:28:55.772Z,54.30
2023-04-22T18:31:23.933Z,55.50
2023-04-22T18:33:52.026Z,55.30
2023-04-22T18:36:20.083Z,55.70
2023-04-22T18:38:48.228Z,56.20
2023-04-22T18:41:16.500Z,56.50
2023-04-22T18:43:47.159Z,56.80
2023-04-22T18:46:15.304Z,57.10
2023-04-22T18:48:43.538Z,57.50
2023-04-22T18:51:12.502Z,57.90
2023-04-22T18:53:40.606Z,58.30
2023-04-22T18:56:08.698Z,58.60
2023-04-22T18:58:37.047Z,58.80
2023-04-22T19:01:07.058Z,58.90
2023-04-22T19:03:35.756Z,59.20
2023-04-22T19:06:04.036Z,59.40
2023-04-22T19:08:32.247Z,59.80
2023-04-22T19:11:00.524Z,60.10
2023-04-22T19:13:30.185Z,60.60
2023-04-22T19:15:58.903Z,61.00
2023-04-22T19:18:28.509Z,61.50
2023-04-22T19:20:56.568Z,62.00
2023-04-22T19:23:24.864Z,62.30
2023-04-22T19:25:53.333Z,62.60
2023-04-22T19:28:21.526Z,62.80
2023-04-22T19:30:49.787Z,63.10
2023-04-22T19:33:18.027Z,63.40
2023-04-22T19:35:47.386Z,63.80
2023-04-22T19:38:19.169Z,64.30
2023-04-22T19:40:47.536Z,64.70
2023-04-22T19:43:17.121Z,65.00
2023-04-22T19:45:45.598Z,65.30
2023-04-22T19:48:14.426Z,65.50
2023-04-22T19:50:44.888Z,65.80
2023-04-22T19:53:14.761Z,66.20
2023-04-22T19:55:44.413Z,66.60
2023-04-22T19:58:12.681Z,67.10
2023-04-22T20:00:42.551Z,67.60
2023-04-22T20:03:13.144Z,67.90
2023-04-22T20:05:42.459Z,68.40
2023-04-22T20:08:11.404Z,68.60
2023-04-22T20:10:41.347Z,68.80
2023-04-22T20:13:09.858Z,69.20
2023-04-22T20:15:38.204Z,69.40
2023-04-22T20:18:06.884Z,69.70
2023-04-22T20:20:35.196Z,69.90
2023-04-22T20:23:09.757Z,70.10
2023-04-22T20:25:44.117Z,70.40
2023-04-22T20:28:14.424Z,71.60
2023-04-22T20:30:43.000Z,71.10
2023-04-22T20:33:15.754Z,71.40
2023-04-22T20:35:46.173Z,71.70
2023-04-22T20:38:15.289Z,72.00
2023-04-22T20:40:46.280Z,72.20
2023-04-22T20:43:14.524Z,72.50
2023-04-22T20:45:43.397Z,72.90
2023-04-22T20:48:11.667Z,73.20
2023-04-22T20:50:39.663Z,73.50
2023-04-22T20:53:07.728Z,73.70
2023-04-22T20:55:37.243Z,73.80
2023-04-22T20:58:07.054Z,73.90
2023-04-22T21:00:35.502Z,74.10
2023-04-22T21:03:05.523Z,74.30
2023-04-22T21:05:40.768Z,74.70
2023-04-22T21:08:19.867Z,74.90
2023-04-22T21:10:48.762Z,75.20
2023-04-22T21:13:19.030Z,75.40
2023-04-22T21:15:55.957Z,75.60
2023-04-22T21:18:26.579Z,75.70
2023-04-22T21:20:56.356Z,75.70
2023-04-22T21:23:25.244Z,76.00
2023-04-22T21:25:56.182Z,76.10
2023-04-22T21:28:26.325Z,76.30
2023-04-22T21:30:55.709Z,76.40
2023-04-22T21:33:25.350Z,76.60
2023-04-22T21:35:53.388Z,76.90
2023-04-22T21:38:21.811Z,77.20
2023-04-22T21:40:49.872Z,77.40
2023-04-22T21:43:17.893Z,77.60
2023-04-22T21:45:47.324Z,77.70
2023-04-22T21:48:15.372Z,77.70
2023-04-22T21:50:43.667Z,77.80
2023-04-22T21:53:12.366Z,78.00
2023-04-22T21:55:40.630Z,78.00
2023-04-22T21:58:08.639Z,78.30
2023-04-22T22:00:37.835Z,79.40
2023-04-22T22:03:07.634Z,78.90
2023-04-22T22:05:36.705Z,79.00
2023-04-22T22:08:04.866Z,79.10
2023-04-22T22:10:32.988Z,79.20
2023-04-22T22:13:01.068Z,79.20
2023-04-22T22:15:29.202Z,79.30
2023-04-22T22:17:57.582Z,79.50
2023-04-22T22:20:27.055Z,79.90
2023-04-22T22:22:55.251Z,80.20
2023-04-22T22:25:23.257Z,80.40
2023-04-22T22:27:51.305Z,80.50
2023-04-22T22:30:21.636Z,80.60
2023-04-22T22:32:49.934Z,80.60
2023-04-22T22:35:18.220Z,80.50
2023-04-22T22:37:48.072Z,80.50
2023-04-22T22:40:16.518Z,80.50
2023-04-22T22:42:44.771Z,80.50
2023-04-22T22:45:13.264Z,80.70
2023-04-22T22:47:41.382Z,80.70
2023-04-22T22:50:10.016Z,80.70
2023-04-22T22:52:38.057Z,80.90
2023-04-22T22:55:10.252Z,81.10
2023-04-22T22:57:38.382Z,81.20
2023-04-22T23:00:09.475Z,81.30
2023-04-22T23:02:37.898Z,81.50
2023-04-22T23:05:09.536Z,81.80
2023-04-22T23:07:38.806Z,81.90
2023-04-22T23:10:09.671Z,81.80
2023-04-22T23:12:37.709Z,82.00
2023-04-22T23:15:07.795Z,82.00
2023-04-22T23:17:37.283Z,82.10
2023-04-22T23:20:08.183Z,82.10
2023-04-22T23:22:38.774Z,82.20
2023-04-22T23:25:09.624Z,82.40
2023-04-22T23:27:38.185Z,82.60
2023-04-22T23:30:07.806Z,82.80
2023-04-22T23:32:40.076Z,82.80
2023-04-22T23:35:09.684Z,83.00
2023-04-22T23:37:38.832Z,83.20
2023-04-22T23:40:10.415Z,83.50
2023-04-22T23:42:38.368Z,83.50
2023-04-22T23:45:07.494Z,83.70
2023-04-22T23:47:35.736Z,84.00
2023-04-22T23:50:04.877Z,84.30
2023-04-22T23:52:32.845Z,84.50
2023-04-22T23:55:01.216Z,84.70
2023-04-22T23:57:31.152Z,84.60
2023-04-22T23:59:59.550Z,84.70
